createdAt,value
2018-06-11T00:00:30.229Z,19.09
2018-06-11T00:03:12.312Z,19.03
2018-06-11T00:05:42.162Z,19.15
2018-06-11T00:11:31.483Z,18.79
2018-06-11T00:14:01.569Z,18.50
2018-06-11T00:16:31.535Z,18.71
2018-06-11T00:19:01.673Z,18.92
2018-06-11T00:22:24.328Z,18.82
2018-06-11T00:24:54.189Z,18.95
2018-06-11T00:27:25.058Z,18.71
2018-06-11T00:30:20.868Z,18.16
2018-06-11T00:32:50.950Z,18.40
2018-06-11T00:35:21.001Z,18.62
2018-06-11T00:37:50.888Z,18.30
2018-06-11T00:40:20.967Z,18.26
2018-06-11T00:42:51.100Z,18.25
2018-06-11T00:45:38.931Z,18.52
2018-06-11T00:48:08.947Z,18.32
2018-06-11T00:50:38.950Z,18.30
2018-06-11T00:53:08.995Z,18.11
2018-06-11T00:55:55.335Z,18.22
2018-06-11T00:58:25.430Z,18.28
2018-06-11T01:00:55.469Z,18.65
2018-06-11T01:03:25.709Z,18.30
2018-06-11T01:06:11.729Z,18.19
2018-06-11T01:08:41.791Z,18.33
2018-06-11T01:14:12.002Z,18.08
2018-06-11T01:16:41.919Z,18.25
2018-06-11T01:19:11.984Z,18.12
2018-06-11T01:21:41.981Z,17.90
2018-06-11T01:24:35.355Z,17.98
2018-06-11T01:27:05.354Z,18.07
2018-06-11T01:29:37.023Z,18.34
2018-06-11T01:32:06.859Z,17.70
2018-06-11T01:34:36.747Z,17.78
2018-06-11T01:37:06.754Z,18.00
2018-06-11T01:44:36.298Z,18.07
2018-06-11T01:48:36.783Z,17.70
2018-06-11T01:51:34.803Z,17.46
2018-06-11T01:54:34.724Z,17.71
2018-06-11T01:57:04.573Z,17.54
2018-06-11T01:59:34.711Z,17.54
2018-06-11T02:02:04.760Z,17.38
2018-06-11T02:04:34.743Z,17.39
2018-06-11T02:07:04.666Z,17.43
2018-06-11T02:09:37.936Z,17.24
2018-06-11T02:12:08.035Z,17.25
2018-06-11T02:14:38.192Z,17.47
2018-06-11T02:17:08.164Z,17.50
2018-06-11T02:19:48.167Z,17.18
2018-06-11T02:22:18.172Z,17.37
2018-06-11T02:25:04.271Z,17.16
2018-06-11T02:27:34.420Z,17.33
2018-06-11T02:30:04.342Z,17.16
2018-06-11T02:32:34.642Z,17.14
2018-06-11T02:35:04.754Z,17.20
2018-06-11T02:37:34.812Z,17.24
2018-06-11T02:40:04.779Z,17.15
2018-06-11T02:42:34.826Z,17.14
2018-06-11T02:45:04.806Z,17.29
2018-06-11T02:47:46.496Z,17.18
2018-06-11T02:50:17.284Z,17.19
2018-06-11T02:52:47.088Z,17.12
2018-06-11T02:55:16.940Z,17.25
2018-06-11T03:01:39.359Z,17.06
2018-06-11T03:04:09.405Z,16.93
2018-06-11T03:06:39.432Z,16.95
2018-06-11T03:09:09.678Z,16.84
2018-06-11T03:12:09.915Z,17.09
2018-06-11T03:15:04.053Z,17.34
2018-06-11T03:21:05.268Z,17.60
2018-06-11T03:23:38.415Z,17.39
2018-06-11T03:26:38.490Z,17.20
2018-06-11T03:32:09.504Z,17.51
2018-06-11T03:34:39.606Z,17.39
2018-06-11T03:37:09.558Z,17.21
2018-06-11T03:39:39.538Z,17.53
2018-06-11T03:42:10.656Z,17.20
2018-06-11T03:44:40.799Z,16.92
2018-06-11T03:47:10.607Z,16.92
2018-06-11T03:49:40.690Z,17.16
2018-06-11T03:52:10.925Z,17.31
2018-06-11T03:54:40.903Z,17.39
2018-06-11T03:57:11.218Z,17.34
2018-06-11T03:59:41.133Z,17.10
2018-06-11T04:02:11.359Z,17.51
2018-06-11T04:04:41.457Z,17.38
2018-06-11T04:07:11.620Z,17.07
2018-06-11T04:09:42.648Z,17.13
2018-06-11T04:12:12.824Z,17.19
2018-06-11T04:14:43.034Z,17.27
2018-06-11T04:17:13.383Z,17.04
2018-06-11T04:19:43.693Z,17.12
2018-06-11T04:22:14.046Z,17.01
2018-06-11T04:24:48.027Z,17.20
2018-06-11T04:27:18.083Z,17.31
2018-06-11T04:29:48.024Z,16.93
2018-06-11T04:32:19.757Z,17.10
2018-06-11T04:37:53.771Z,16.97
2018-06-11T04:40:24.231Z,16.78
2018-06-11T04:43:02.533Z,16.94
2018-06-11T04:48:41.043Z,16.69
2018-06-11T04:54:15.298Z,16.77
2018-06-11T04:56:45.420Z,16.74
2018-06-11T04:59:20.427Z,16.68
2018-06-11T05:01:59.856Z,16.85
2018-06-11T05:04:35.258Z,16.70
2018-06-11T05:07:17.044Z,16.91
2018-06-11T05:09:50.716Z,16.57
2018-06-11T05:12:57.873Z,17.05
2018-06-11T05:18:51.428Z,16.82
2018-06-11T05:21:23.689Z,16.89
2018-06-11T05:24:16.549Z,16.97
2018-06-11T05:26:46.892Z,17.37
2018-06-11T05:29:16.968Z,17.21
2018-06-11T05:31:47.114Z,16.95
2018-06-11T05:34:17.686Z,17.47
2018-06-11T05:36:48.783Z,17.19
2018-06-11T05:40:16.301Z,17.12
2018-06-11T05:46:22.280Z,16.93
2018-06-11T05:49:24.560Z,17.06
2018-06-11T05:51:54.557Z,16.91
2018-06-11T05:54:26.587Z,17.01
2018-06-11T05:57:21.277Z,17.09
2018-06-11T06:03:22.898Z,16.89
2018-06-11T06:05:53.303Z,16.94
2018-06-11T06:08:35.364Z,16.90
2018-06-11T06:11:06.173Z,16.89
2018-06-11T06:14:34.735Z,16.98
2018-06-11T06:17:04.768Z,16.99
2018-06-11T06:19:34.939Z,17.18
2018-06-11T06:22:04.873Z,17.30
2018-06-11T06:24:34.857Z,17.47
2018-06-11T06:27:06.292Z,17.42
2018-06-11T06:29:39.549Z,17.27
2018-06-11T06:33:18.074Z,17.36
2018-06-11T06:35:48.215Z,17.32
2018-06-11T06:38:20.278Z,17.30
2018-06-11T06:44:30.359Z,17.35
2018-06-11T06:47:03.683Z,17.35
2018-06-11T06:49:35.878Z,17.37
2018-06-11T06:52:06.435Z,17.54
2018-06-11T06:54:37.811Z,17.51
2018-06-11T06:57:10.357Z,17.45
2018-06-11T06:59:42.122Z,17.62
2018-06-11T07:02:16.445Z,17.58
2018-06-11T07:04:47.545Z,17.40
2018-06-11T07:07:17.936Z,17.46
2018-06-11T07:09:49.261Z,17.49
2018-06-11T07:12:21.280Z,17.57
2018-06-11T07:16:35.193Z,17.54
2018-06-11T07:19:07.089Z,17.54
2018-06-11T07:21:37.501Z,17.52
2018-06-11T07:24:07.991Z,17.74
2018-06-11T07:26:44.556Z,18.13
2018-06-11T07:29:22.734Z,18.11
2018-06-11T07:31:54.551Z,17.73
2018-06-11T07:34:29.739Z,17.94
2018-06-11T07:37:03.168Z,17.94
2018-06-11T07:39:35.700Z,18.10
2018-06-11T07:42:06.027Z,18.50
2018-06-11T07:44:37.384Z,18.58
2018-06-11T07:47:08.465Z,18.17
2018-06-11T07:52:49.324Z,18.24
2018-06-11T07:55:22.323Z,18.41
2018-06-11T07:57:54.532Z,18.50
2018-06-11T08:00:24.684Z,18.61
2018-06-11T08:06:07.913Z,18.62
2018-06-11T08:11:42.131Z,18.76
2018-06-11T08:15:29.851Z,18.54
2018-06-11T08:18:14.123Z,18.74
2018-06-11T08:20:44.210Z,18.51
2018-06-11T08:26:16.408Z,18.47
2018-06-11T08:31:59.760Z,18.79
2018-06-11T08:35:02.876Z,18.74
2018-06-11T08:37:33.320Z,18.69
2018-06-11T08:40:06.885Z,18.88
2018-06-11T08:45:47.557Z,18.75
2018-06-11T08:48:17.514Z,19.14
2018-06-11T08:50:58.149Z,19.10
2018-06-11T08:53:29.215Z,18.88
2018-06-11T08:56:01.977Z,19.08
2018-06-11T08:58:35.658Z,19.15
2018-06-11T09:01:06.602Z,19.64
2018-06-11T09:10:20.897Z,19.60
2018-06-11T09:12:51.812Z,19.73
2018-06-11T09:15:23.371Z,19.32
2018-06-11T09:18:06.887Z,19.41
2018-06-11T09:20:38.882Z,19.49
2018-06-11T09:23:09.673Z,19.95
2018-06-11T09:25:40.994Z,20.03
2018-06-11T09:31:01.489Z,19.56
2018-06-11T09:33:37.837Z,19.78
2018-06-11T09:36:32.270Z,19.77
2018-06-11T09:46:57.747Z,20.18
2018-06-11T09:50:00.800Z,20.24
2018-06-11T09:52:36.045Z,20.34
2018-06-11T09:55:06.361Z,20.48
2018-06-11T09:57:38.403Z,20.25
2018-06-11T10:00:25.557Z,20.51
2018-06-11T10:06:20.846Z,20.65
2018-06-11T10:08:50.947Z,20.67
2018-06-11T10:11:25.593Z,20.63
2018-06-11T10:13:57.219Z,21.01
2018-06-11T10:16:27.229Z,20.90
2018-06-11T10:19:25.493Z,21.03
2018-06-11T10:21:55.679Z,20.97
2018-06-11T10:24:27.361Z,21.09
2018-06-11T10:27:25.556Z,20.79
2018-06-11T10:29:55.619Z,21.38
2018-06-11T10:32:31.433Z,21.14
2018-06-11T10:35:02.873Z,21.00
2018-06-11T10:37:34.640Z,21.71
2018-06-11T10:40:25.188Z,21.69
2018-06-11T10:43:43.797Z,21.62
2018-06-11T10:46:16.360Z,21.68
2018-06-11T10:48:56.607Z,21.61
2018-06-11T10:51:26.626Z,21.69
2018-06-11T10:53:57.515Z,21.83
2018-06-11T10:56:27.518Z,21.72
2018-06-11T10:58:58.066Z,21.61
2018-06-11T11:01:28.864Z,21.51
2018-06-11T11:03:59.644Z,21.49
2018-06-11T11:06:29.766Z,21.85
2018-06-11T11:09:02.455Z,21.70
2018-06-11T11:11:33.665Z,21.62
2018-06-11T11:14:06.001Z,21.88
2018-06-11T11:16:39.058Z,22.17
2018-06-11T11:19:09.420Z,22.33
2018-06-11T11:21:44.171Z,22.20
2018-06-11T11:24:18.033Z,21.95
2018-06-11T11:27:06.437Z,21.95
2018-06-11T11:29:36.890Z,22.08
2018-06-11T11:32:43.096Z,22.06
2018-06-11T11:38:14.736Z,22.31
2018-06-11T11:40:47.288Z,22.19
2018-06-11T11:46:37.289Z,22.63
2018-06-11T11:49:07.311Z,22.10
2018-06-11T11:51:38.386Z,22.28
2018-06-11T11:54:10.536Z,22.27
2018-06-11T11:56:42.475Z,22.31
2018-06-11T11:59:13.150Z,22.58
2018-06-11T12:02:05.396Z,22.74
2018-06-11T12:04:36.526Z,22.56
2018-06-11T12:07:37.291Z,22.60
2018-06-11T12:10:25.848Z,22.85
2018-06-11T12:13:25.084Z,22.88
2018-06-11T12:19:01.500Z,22.80
2018-06-11T12:21:43.384Z,22.83
2018-06-11T12:31:41.442Z,22.99
2018-06-11T12:34:51.798Z,23.08
2018-06-11T12:37:24.038Z,22.93
2018-06-11T12:39:58.095Z,23.15
2018-06-11T12:42:32.236Z,23.26
2018-06-11T12:45:03.336Z,23.15
2018-06-11T12:47:40.645Z,23.14
2018-06-11T12:52:58.964Z,23.52
2018-06-11T12:55:42.181Z,23.71
2018-06-11T12:58:12.910Z,23.26
2018-06-11T13:04:17.489Z,23.31
2018-06-11T13:06:52.351Z,23.34
2018-06-11T13:09:24.223Z,23.37
2018-06-11T13:12:12.796Z,23.55
2018-06-11T13:15:39.923Z,23.31
2018-06-11T13:18:38.112Z,23.60
2018-06-11T13:21:37.745Z,23.57
2018-06-11T13:24:09.707Z,23.19
2018-06-11T13:26:40.727Z,23.54
2018-06-11T13:29:11.513Z,23.17
2018-06-11T13:31:41.339Z,23.51
2018-06-11T13:34:11.249Z,23.10
2018-06-11T13:36:41.944Z,23.46
2018-06-11T13:39:13.287Z,23.54
2018-06-11T13:41:48.358Z,23.29
2018-06-11T13:44:23.923Z,23.56
2018-06-11T13:47:09.659Z,23.35
2018-06-11T13:49:44.439Z,23.25
2018-06-11T13:52:15.713Z,23.58
2018-06-11T13:54:59.238Z,23.27
2018-06-11T13:57:29.924Z,23.41
2018-06-11T14:00:00.270Z,23.27
2018-06-11T14:02:31.731Z,23.50
2018-06-11T14:05:01.953Z,23.54
2018-06-11T14:07:46.616Z,23.25
2018-06-11T14:10:16.556Z,23.57
2018-06-11T14:12:51.179Z,23.47
2018-06-11T14:15:37.653Z,23.38
2018-06-11T14:18:20.747Z,23.71
2018-06-11T14:20:50.639Z,23.57
2018-06-11T14:23:40.118Z,23.36
2018-06-11T14:26:22.618Z,23.29
2018-06-11T14:29:18.965Z,23.51
2018-06-11T14:31:49.301Z,23.23
2018-06-11T14:34:23.400Z,23.32
2018-06-11T14:37:01.250Z,23.36
2018-06-11T14:39:35.371Z,23.33
2018-06-11T14:42:18.264Z,23.27
2018-06-11T14:44:50.090Z,23.29
2018-06-11T14:47:20.369Z,23.05
2018-06-11T14:52:47.305Z,23.09
2018-06-11T15:22:57.097Z,23.18
2018-06-11T15:28:38.156Z,23.14
2018-06-11T15:34:35.077Z,23.11
2018-06-11T15:37:05.478Z,22.80
2018-06-11T15:42:39.116Z,22.94
2018-06-11T15:48:20.112Z,22.61
2018-06-11T15:53:49.776Z,22.47
2018-06-11T15:56:19.964Z,22.77
2018-06-11T15:58:50.274Z,22.62
2018-06-11T16:01:20.565Z,22.21
2018-06-11T16:03:50.823Z,22.54
2018-06-11T16:06:36.636Z,22.54
2018-06-11T16:09:31.345Z,22.71
2018-06-11T16:12:02.454Z,22.71
2018-06-11T16:14:34.933Z,22.96
2018-06-11T16:23:09.498Z,22.45
2018-06-11T16:25:39.865Z,22.21
2018-06-11T16:28:10.763Z,22.03
2018-06-11T16:37:11.712Z,22.17
2018-06-11T16:54:28.744Z,21.85
2018-06-11T16:57:24.624Z,21.97
2018-06-11T17:02:39.969Z,21.83
2018-06-11T17:15:05.271Z,21.70
2018-06-11T17:17:50.212Z,21.80
2018-06-11T17:20:24.773Z,21.76
2018-06-11T17:23:05.538Z,21.62
2018-06-11T17:25:42.702Z,21.87
2018-06-11T17:28:36.976Z,21.83
2018-06-11T17:31:36.611Z,21.78
2018-06-11T17:34:06.959Z,21.69
2018-06-11T17:36:36.908Z,21.59
2018-06-11T17:39:36.080Z,21.65
2018-06-11T17:42:07.011Z,21.68
2018-06-11T17:49:48.937Z,21.67
2018-06-11T17:52:35.127Z,21.83
2018-06-11T18:06:33.419Z,21.46
2018-06-11T19:09:30.964Z,20.63
2018-06-11T19:32:24.447Z,20.23
2018-06-11T20:06:36.243Z,20.25
2018-06-11T21:01:23.144Z,19.58
2018-06-11T21:33:08.278Z,19.20
2018-06-11T22:02:51.576Z,18.91
2018-06-11T22:05:36.798Z,18.80
2018-06-11T22:33:14.753Z,18.30
2018-06-11T22:36:05.307Z,18.37
2018-06-11T22:38:49.776Z,18.50
2018-06-11T22:42:03.406Z,18.28
2018-06-11T22:54:16.420Z,18.40
2018-06-11T22:58:47.598Z,18.48
2018-06-11T23:17:08.387Z,18.31
2018-06-11T23:36:49.093Z,17.86
2018-06-11T23:56:30.028Z,17.78
2018-06-11T23:59:01.547Z,17.33
